Time,TemperatureF,DewpointF,PressureIn,WindDirection,WindDirectionDegrees,WindSpeedMPH,WindSpeedGustMPH,Humidity,HourlyPrecipIn,Conditions,Clouds,dailyrainin,SoftwareType,DateUTC
2013-09-25 00:01:00,54.0,48.6,29.95,West,270,0.0,0.0,82,0.00,,,0.00,WUHU21636XXSP,2013-09-25 05:01:00,
2013-09-25 00:06:00,54.0,48.6,29.95,SE,135,0.0,0.0,82,0.00,,,0.00,WUHU21636XXSP,2013-09-25 05:06:00,
2013-09-25 00:11:00,54.2,48.8,29.96,WSW,247,0.0,0.0,82,0.00,,,0.00,WUHU21636XXSP,2013-09-25 05:11:00,
2013-09-25 00:16:00,54.2,48.8,29.96,WSW,247,0.0,0.0,82,0.00,,,0.00,WUHU21636XXSP,2013-09-25 05:16:00,
2013-09-25 00:21:00,54.2,48.8,29.96,WSW,247,0.0,0.0,82,0.00,,,0.00,WUHU21636XXSP,2013-09-25 05:21:00,
2013-09-25 00:26:00,54.0,48.3,29.96,WSW,247,0.0,0.0,81,0.00,,,0.00,WUHU21636XXSP,2013-09-25 05:26:00,
2013-09-25 00:31:00,53.8,48.1,29.96,WSW,247,0.0,0.0,81,0.00,,,0.00,WUHU21636XXSP,2013-09-25 05:31:00,
2013-09-25 00:36:00,53.8,48.1,29.96,SSW,202,0.0,0.0,81,0.00,,,0.00,WUHU21636XXSP,2013-09-25 05:36:00,
2013-09-25 00:41:00,53.5,47.9,29.96,SSW,202,0.0,0.0,81,0.00,,,0.00,WUHU21636XXSP,2013-09-25 05:41:00,
2013-09-25 00:46:00,53.5,47.9,29.97,SSW,202,0.0,0.0,81,0.00,,,0.00,WUHU21636XXSP,2013-09-25 05:46:00,
2013-09-25 00:51:00,53.5,47.9,29.97,SSW,202,0.0,0.0,81,0.00,,,0.00,WUHU21636XXSP,2013-09-25 05:51:00,
2013-09-25 00:56:00,53.4,47.8,29.97,SSE,157,0.0,0.0,81,0.00,,,0.00,WUHU21636XXSP,2013-09-25 05:56:00,
2013-09-25 01:01:00,53.2,47.6,29.97,SSE,157,0.0,0.0,81,0.00,,,0.00,WUHU21636XXSP,2013-09-25 06:01:00,
2013-09-25 01:06:00,53.0,47.4,29.97,SSE,157,0.0,0.0,81,0.00,,,0.00,WUHU21636XXSP,2013-09-25 06:06:00,
2013-09-25 01:11:00,52.8,47.2,29.97,SSE,157,0.0,0.0,81,0.00,,,0.00,WUHU21636XXSP,2013-09-25 06:11:00,
2013-09-25 01:16:00,52.8,47.2,29.97,SSE,157,0.0,0.0,81,0.00,,,0.00,WUHU21636XXSP,2013-09-25 06:16:00,
2013-09-25 01:21:00,52.6,47.0,29.97,SSE,157,0.0,0.0,81,0.00,,,0.00,WUHU21636XXSP,2013-09-25 06:21:00,
2013-09-25 01:26:00,52.6,47.0,29.97,SSE,157,0.0,0.0,81,0.00,,,0.00,WUHU21636XXSP,2013-09-25 06:26:00,
2013-09-25 01:31:00,52.6,47.0,29.97,SSE,157,0.0,0.0,81,0.00,,,0.00,WUHU21636XXSP,2013-09-25 06:31:00,
2013-09-25 01:36:00,52.6,47.0,29.98,SSE,157,0.0,0.0,81,0.00,,,0.00,WUHU21636XXSP,2013-09-25 06:36:00,
2013-09-25 01:41:00,52.5,46.9,29.97,SSE,157,0.0,0.0,81,0.00,,,0.00,WUHU21636XXSP,2013-09-25 06:41:00,
2013-09-25 01:46:00,52.3,46.7,29.97,SSE,157,0.0,0.0,81,0.00,,,0.00,WUHU21636XXSP,2013-09-25 06:46:00,
2013-09-25 01:51:00,52.1,46.5,29.98,SSE,157,0.0,0.0,81,0.00,,,0.00,WUHU21636XXSP,2013-09-25 06:51:00,
2013-09-25 01:56:00,52.1,46.5,29.98,SSE,157,0.0,0.0,81,0.00,,,0.00,WUHU21636XXSP,2013-09-25 06:56:00,
2013-09-25 02:01:00,52.1,46.5,29.98,SSE,157,0.0,0.0,81,0.00,,,0.00,WUHU21636XXSP,2013-09-25 07:01:00,
2013-09-25 02:06:00,51.9,46.3,29.98,SSE,157,0.0,0.0,81,0.00,,,0.00,WUHU21636XXSP,2013-09-25 07:06:00,
2013-09-25 02:11:00,51.9,46.3,29.97,SSE,157,0.0,0.0,81,0.00,,,0.00,WUHU21636XXSP,2013-09-25 07:11:00,
2013-09-25 02:16:00,51.7,46.0,29.98,SSE,157,0.0,0.0,81,0.00,,,0.00,WUHU21636XXSP,2013-09-25 07:16:00,
2013-09-25 02:21:00,51.7,46.0,29.97,SSE,157,0.0,0.0,81,0.00,,,0.00,WUHU21636XXSP,2013-09-25 07:21:00,
2013-09-25 02:26:00,51.6,46.3,29.97,SSE,157,0.0,0.0,82,0.00,,,0.00,WUHU21636XXSP,2013-09-25 07:26:00,
2013-09-25 02:31:00,51.6,46.3,29.97,SSE,157,0.0,0.0,82,0.00,,,0.00,WUHU21636XXSP,2013-09-25 07:31:00,
2013-09-25 02:36:00,51.3,46.1,29.98,SSE,157,0.0,0.0,82,0.00,,,0.00,WUHU21636XXSP,2013-09-25 07:36:00,
2013-09-25 02:41:00,51.3,46.1,29.98,SSE,157,0.0,0.0,82,0.00,,,0.00,WUHU21636XXSP,2013-09-25 07:41:00,
2013-09-25 02:46:00,51.3,46.1,29.98,SSE,157,0.0,0.0,82,0.00,,,0.00,WUHU21636XXSP,2013-09-25 07:46:00,
2013-09-25 02:51:00,50.9,45.6,29.98,SSE,157,0.0,0.0,82,0.00,,,0.00,WUHU21636XXSP,2013-09-25 07:51:00,
2013-09-25 02:56:00,50.9,45.6,29.98,SSE,157,0.0,0.0,82,0.00,,,0.00,WUHU21636XXSP,2013-09-25 07:56:00,
2013-09-25 03:01:00,50.9,45.6,29.98,SSE,157,0.0,0.0,82,0.00,,,0.00,WUHU21636XXSP,2013-09-25 08:01:00,
2013-09-25 03:06:00,50.7,45.4,29.98,SSE,157,0.0,0.0,82,0.00,,,0.00,WUHU21636XXSP,2013-09-25 08:06:00,
2013-09-25 03:11:00,50.7,45.4,29.98,SSE,157,0.0,0.0,82,0.00,,,0.00,WUHU21636XXSP,2013-09-25 08:11:00,
2013-09-25 03:16:00,50.7,45.4,29.98,SSE,157,0.0,0.0,82,0.00,,,0.00,WUHU21636XXSP,2013-09-25 08:16:00,
2013-09-25 03:21:00,50.7,45.4,29.98,SSE,157,0.0,0.0,82,0.00,,,0.00,WUHU21636XXSP,2013-09-25 08:21:00,
2013-09-25 03:26:00,50.7,45.4,29.98,SSE,157,0.0,0.0,82,0.00,,,0.00,WUHU21636XXSP,2013-09-25 08:26:00,
2013-09-25 03:31:00,50.6,45.3,29.98,SSE,157,0.0,0.0,82,0.00,,,0.00,WUHU21636XXSP,2013-09-25 08:31:00,
2013-09-25 03:36:00,50.6,45.3,29.97,SSE,157,0.0,0.0,82,0.00,,,0.00,WUHU21636XXSP,2013-09-25 08:36:00,
2013-09-25 03:41:00,50.4,45.1,29.98,SSE,157,0.0,0.0,82,0.00,,,0.00,WUHU21636XXSP,2013-09-25 08:41:00,
2013-09-25 03:46:00,50.4,45.1,29.98,SSE,157,0.0,0.0,82,0.00,,,0.00,WUHU21636XXSP,2013-09-25 08:46:00,
2013-09-25 03:51:00,50.4,45.1,29.98,SSE,157,0.0,0.0,82,0.00,,,0.00,WUHU21636XXSP,2013-09-25 08:51:00,
2013-09-25 03:56:00,50.4,45.1,29.98,SSE,157,0.0,0.0,82,0.00,,,0.00,WUHU21636XXSP,2013-09-25 08:56:00,
2013-09-25 04:01:00,50.2,44.9,29.98,SSE,157,0.0,0.0,82,0.00,,,0.00,WUHU21636XXSP,2013-09-25 09:01:00,
2013-09-25 04:06:00,50.2,44.9,29.98,SSE,157,0.0,0.0,82,0.00,,,0.00,WUHU21636XXSP,2013-09-25 09:06:00,
2013-09-25 04:11:00,50.2,44.9,29.98,SSE,157,0.0,0.0,82,0.00,,,0.00,WUHU21636XXSP,2013-09-25 09:11:00,
2013-09-25 04:16:00,50.0,44.7,29.98,SSE,157,0.0,0.0,82,0.00,,,0.00,WUHU21636XXSP,2013-09-25 09:16:00,
2013-09-25 04:21:00,50.0,44.7,29.97,SSE,157,0.0,0.0,82,0.00,,,0.00,WUHU21636XXSP,2013-09-25 09:21:00,
2013-09-25 04:26:00,50.0,44.7,29.98,SSE,157,0.0,0.0,82,0.00,,,0.00,WUHU21636XXSP,2013-09-25 09:26:00,
2013-09-25 04:31:00,50.0,44.7,29.98,SSE,157,0.0,0.0,82,0.00,,,0.00,WUHU21636XXSP,2013-09-25 09:31:00,
2013-09-25 04:36:00,49.8,44.5,29.98,SSE,157,0.0,0.0,82,0.00,,,0.00,WUHU21636XXSP,2013-09-25 09:36:00,
2013-09-25 04:41:00,49.8,44.5,29.98,SSE,157,0.0,0.0,82,0.00,,,0.00,WUHU21636XXSP,2013-09-25 09:41:00,
2013-09-25 04:46:00,49.8,44.5,29.98,SSE,157,0.0,0.0,82,0.00,,,0.00,WUHU21636XXSP,2013-09-25 09:46:00,
2013-09-25 04:51:00,49.8,44.5,29.99,SSE,157,0.0,0.0,82,0.00,,,0.00,WUHU21636XXSP,2013-09-25 09:51:00,
2013-09-25 04:56:00,49.7,44.4,29.98,SSE,157,0.0,0.0,82,0.00,,,0.00,WUHU21636XXSP,2013-09-25 09:56:00,
2013-09-25 05:01:00,49.7,44.4,29.98,SSE,157,0.0,0.0,82,0.00,,,0.00,WUHU21636XXSP,2013-09-25 10:01:00,
2013-09-25 05:06:00,49.5,44.2,29.98,SSE,157,0.0,0.0,82,0.00,,,0.00,WUHU21636XXSP,2013-09-25 10:06:00,
2013-09-25 05:11:00,49.5,44.2,29.98,SSE,157,0.0,0.0,82,0.00,,,0.00,WUHU21636XXSP,2013-09-25 10:11:00,
2013-09-25 05:16:00,49.5,44.2,29.98,SSE,157,0.0,0.0,82,0.00,,,0.00,WUHU21636XXSP,2013-09-25 10:16:00,
2013-09-25 05:21:00,49.5,44.2,29.98,SSE,157,0.0,0.0,82,0.00,,,0.00,WUHU21636XXSP,2013-09-25 10:21:00,
2013-09-25 05:26:00,49.2,44.0,29.98,SSE,157,0.0,0.0,82,0.00,,,0.00,WUHU21636XXSP,2013-09-25 10:26:00,
2013-09-25 05:31:00,49.2,44.0,29.97,SSE,157,0.0,0.0,82,0.00,,,0.00,WUHU21636XXSP,2013-09-25 10:31:00,
2013-09-25 05:36:00,49.0,43.8,29.98,SSE,157,0.0,0.0,82,0.00,,,0.00,WUHU21636XXSP,2013-09-25 10:36:00,
2013-09-25 05:41:00,49.0,43.8,29.98,SSE,157,0.0,0.0,82,0.00,,,0.00,WUHU21636XXSP,2013-09-25 10:41:00,
2013-09-25 05:46:00,49.0,43.8,29.98,SSE,157,0.0,0.0,82,0.00,,,0.00,WUHU21636XXSP,2013-09-25 10:46:00,
2013-09-25 05:52:00,48.8,43.6,29.98,SSE,157,0.0,0.0,82,0.00,,,0.00,WUHU21636XXSP,2013-09-25 10:52:00,
2013-09-25 05:56:00,48.8,43.6,29.98,SSE,157,0.0,0.0,82,0.00,,,0.00,WUHU21636XXSP,2013-09-25 10:56:00,
2013-09-25 06:01:00,48.8,43.6,29.98,SSE,157,0.0,0.0,82,0.00,,,0.00,WUHU21636XXSP,2013-09-25 11:01:00,
2013-09-25 06:06:00,48.8,43.6,29.98,SSE,157,0.0,0.0,82,0.00,,,0.00,WUHU21636XXSP,2013-09-25 11:06:00,
2013-09-25 06:11:00,48.8,43.9,29.98,SSE,157,0.0,0.0,83,0.00,,,0.00,WUHU21636XXSP,2013-09-25 11:11:00,
2013-09-25 06:16:00,48.8,43.9,29.99,SSE,157,0.0,0.0,83,0.00,,,0.00,WUHU21636XXSP,2013-09-25 11:16:00,
2013-09-25 06:22:00,48.7,43.8,29.99,SSE,157,0.0,0.0,83,0.00,,,0.00,WUHU21636XXSP,2013-09-25 11:22:00,
2013-09-25 06:27:00,48.7,43.8,29.98,SSE,157,0.0,0.0,83,0.00,,,0.00,WUHU21636XXSP,2013-09-25 11:27:00,
2013-09-25 06:32:00,48.5,43.6,29.99,SSE,157,0.0,0.0,83,0.00,,,0.00,WUHU21636XXSP,2013-09-25 11:32:00,
2013-09-25 06:37:00,48.5,43.6,29.99,SSE,157,0.0,0.0,83,0.00,,,0.00,WUHU21636XXSP,2013-09-25 11:37:00,
2013-09-25 06:42:00,48.3,43.4,29.99,SSE,157,0.0,0.0,83,0.00,,,0.00,WUHU21636XXSP,2013-09-25 11:42:00,
2013-09-25 06:47:00,48.3,43.4,29.99,SSE,157,0.0,0.0,83,0.00,,,0.00,WUHU21636XXSP,2013-09-25 11:47:00,
2013-09-25 06:52:00,48.1,43.2,29.99,SSE,157,0.0,0.0,83,0.00,,,0.00,WUHU21636XXSP,2013-09-25 11:52:00,
2013-09-25 06:57:00,48.1,43.2,29.99,SSE,157,0.0,0.0,83,0.00,,,0.00,WUHU21636XXSP,2013-09-25 11:57:00,
2013-09-25 07:02:00,48.1,43.2,29.99,SSE,157,0.0,0.0,83,0.00,,,0.00,WUHU21636XXSP,2013-09-25 12:02:00,
2013-09-25 07:07:00,47.9,43.0,29.99,SSE,157,0.0,0.0,83,0.00,,,0.00,WUHU21636XXSP,2013-09-25 12:07:00,
2013-09-25 07:12:00,47.9,43.0,29.99,SSE,157,0.0,0.0,83,0.00,,,0.00,WUHU21636XXSP,2013-09-25 12:12:00,
2013-09-25 07:17:00,47.9,43.0,29.99,SSE,157,0.0,0.0,83,0.00,,,0.00,WUHU21636XXSP,2013-09-25 12:17:00,
2013-09-25 07:22:00,47.9,43.0,29.99,SSE,157,0.0,0.0,83,0.00,,,0.00,WUHU21636XXSP,2013-09-25 12:22:00,
2013-09-25 07:27:00,47.9,43.0,30.00,SSE,157,0.0,0.0,83,0.00,,,0.00,WUHU21636XXSP,2013-09-25 12:27:00,
2013-09-25 07:32:00,47.9,43.0,30.00,SSE,157,0.0,0.0,83,0.00,,,0.00,WUHU21636XXSP,2013-09-25 12:32:00,
2013-09-25 07:37:00,48.1,43.2,30.00,SSE,157,0.0,0.0,83,0.00,,,0.00,WUHU21636XXSP,2013-09-25 12:37:00,
2013-09-25 07:42:00,48.1,43.2,30.00,SSE,157,0.0,0.0,83,0.00,,,0.00,WUHU21636XXSP,2013-09-25 12:42:00,
2013-09-25 07:47:00,48.3,43.4,30.00,SSE,157,0.0,0.0,83,0.00,,,0.00,WUHU21636XXSP,2013-09-25 12:47:00,
2013-09-25 07:52:00,48.3,43.4,30.00,SSE,157,0.0,0.0,83,0.00,,,0.00,WUHU21636XXSP,2013-09-25 12:52:00,
2013-09-25 07:57:00,48.3,43.4,30.00,SSE,157,0.0,0.0,83,0.00,,,0.00,WUHU21636XXSP,2013-09-25 12:57:00,
2013-09-25 08:02:00,48.5,43.6,30.00,SSE,157,0.0,0.0,83,0.00,,,0.00,WUHU21636XXSP,2013-09-25 13:02:00,
2013-09-25 08:07:00,48.8,44.2,30.00,SSE,157,0.0,0.0,84,0.00,,,0.00,WUHU21636XXSP,2013-09-25 13:07:00,
2013-09-25 08:12:00,48.8,44.2,30.00,SSE,157,0.0,0.0,84,0.00,,,0.00,WUHU21636XXSP,2013-09-25 13:12:00,
2013-09-25 08:17:00,49.0,44.4,30.00,SSE,157,0.0,0.0,84,0.00,,,0.00,WUHU21636XXSP,2013-09-25 13:17:00,
2013-09-25 08:22:00,49.2,44.6,30.00,SSE,157,0.0,0.0,84,0.00,,,0.00,WUHU21636XXSP,2013-09-25 13:22:00,
2013-09-25 08:27:00,49.5,44.8,30.00,SSE,157,0.0,0.0,84,0.00,,,0.00,WUHU21636XXSP,2013-09-25 13:27:00,
2013-09-25 08:32:00,49.7,45.0,30.00,SSE,157,0.0,0.0,84,0.00,,,0.00,WUHU21636XXSP,2013-09-25 13:32:00,
2013-09-25 08:37:00,50.0,45.3,30.00,SSE,157,0.0,0.0,84,0.00,,,0.00,WUHU21636XXSP,2013-09-25 13:37:00,
2013-09-25 08:42:00,50.2,45.5,30.00,SSE,157,0.0,0.0,84,0.00,,,0.00,WUHU21636XXSP,2013-09-25 13:42:00,
2013-09-25 08:47:00,50.7,46.1,30.00,SSE,157,0.0,0.0,84,0.00,,,0.00,WUHU21636XXSP,2013-09-25 13:47:00,
2013-09-25 08:52:00,50.7,46.1,30.00,SSE,157,0.0,0.0,84,0.00,,,0.00,WUHU21636XXSP,2013-09-25 13:52:00,
2013-09-25 08:57:00,50.9,46.3,30.00,SSE,157,0.0,0.0,84,0.00,,,0.00,WUHU21636XXSP,2013-09-25 13:57:00,
2013-09-25 09:02:00,51.3,46.7,30.00,SE,135,0.0,0.0,84,0.00,,,0.00,WUHU21636XXSP,2013-09-25 14:02:00,
2013-09-25 09:07:00,51.9,47.2,30.00,SE,135,3.0,3.0,84,0.00,,,0.00,WUHU21636XXSP,2013-09-25 14:07:00,
2013-09-25 09:12:00,52.3,47.6,30.00,SE,135,0.0,3.0,84,0.00,,,0.00,WUHU21636XXSP,2013-09-25 14:12:00,
2013-09-25 09:17:00,52.6,47.9,30.00,SE,135,0.0,0.0,84,0.00,,,0.00,WUHU21636XXSP,2013-09-25 14:17:00,
2013-09-25 09:22:00,52.8,48.1,30.00,ESE,112,0.0,0.0,84,0.00,,,0.00,WUHU21636XXSP,2013-09-25 14:22:00,
2013-09-25 09:27:00,53.5,48.8,30.00,ESE,112,0.0,0.0,84,0.00,,,0.00,WUHU21636XXSP,2013-09-25 14:27:00,
2013-09-25 09:32:00,54.0,49.3,30.00,SE,135,0.0,0.0,84,0.00,,,0.00,WUHU21636XXSP,2013-09-25 14:32:00,
2013-09-25 09:37:00,54.5,49.8,30.00,SE,135,0.0,0.0,84,0.00,,,0.00,WUHU21636XXSP,2013-09-25 14:37:00,
2013-09-25 09:42:00,54.7,50.0,30.00,SE,135,0.0,0.0,84,0.00,,,0.00,WUHU21636XXSP,2013-09-25 14:42:00,
2013-09-25 09:47:00,55.3,50.6,30.00,SE,135,0.0,0.0,84,0.00,,,0.00,WUHU21636XXSP,2013-09-25 14:47:00,
2013-09-25 09:52:00,55.7,50.9,29.99,ESE,112,0.0,0.0,84,0.00,,,0.00,WUHU21636XXSP,2013-09-25 14:52:00,
2013-09-25 09:57:00,56.3,51.2,30.00,ESE,112,0.0,0.0,83,0.00,,,0.00,WUHU21636XXSP,2013-09-25 14:57:00,
2013-09-25 10:02:00,56.4,51.0,29.99,SE,135,0.0,0.0,82,0.00,,,0.00,WUHU21636XXSP,2013-09-25 15:02:00,
2013-09-25 10:07:00,57.0,51.0,29.99,SSE,157,0.0,0.0,80,0.00,,,0.00,WUHU21636XXSP,2013-09-25 15:07:00,
2013-09-25 10:12:00,57.8,51.0,30.00,West,270,0.0,0.0,78,0.00,,,0.00,WUHU21636XXSP,2013-09-25 15:12:00,
2013-09-25 10:17:00,58.3,51.2,30.00,East,90,0.0,0.0,77,0.00,,,0.00,WUHU21636XXSP,2013-09-25 15:17:00,
2013-09-25 10:22:00,58.7,51.2,30.00,NNE,22,0.0,0.0,76,0.00,,,0.00,WUHU21636XXSP,2013-09-25 15:22:00,
2013-09-25 10:27:00,59.4,52.0,30.00,ESE,112,0.0,0.8,76,0.00,,,0.00,WUHU21636XXSP,2013-09-25 15:27:00,
2013-09-25 10:32:00,60.2,52.3,30.00,ENE,67,0.0,0.8,75,0.00,,,0.00,WUHU21636XXSP,2013-09-25 15:32:00,
2013-09-25 10:37:00,60.4,52.2,30.00,ESE,112,1.2,1.2,74,0.00,,,0.00,WUHU21636XXSP,2013-09-25 15:37:00,
2013-09-25 10:42:00,61.1,52.5,30.00,South,180,1.2,1.2,73,0.00,,,0.00,WUHU21636XXSP,2013-09-25 15:42:00,
2013-09-25 10:47:00,61.7,52.4,30.00,SE,135,0.0,1.2,71,0.00,,,0.00,WUHU21636XXSP,2013-09-25 15:47:00,
2013-09-25 10:52:00,62.1,52.7,30.00,SE,135,0.0,0.0,71,0.00,,,0.00,WUHU21636XXSP,2013-09-25 15:52:00,
2013-09-25 10:57:00,62.9,52.7,30.00,SE,135,0.0,2.2,69,0.00,,,0.00,WUHU21636XXSP,2013-09-25 15:57:00,
2013-09-25 11:02:00,63.2,53.0,30.00,SSE,157,0.0,2.2,69,0.00,,,0.00,WUHU21636XXSP,2013-09-25 16:02:00,
2013-09-25 11:07:00,63.8,52.8,30.00,ENE,67,0.0,0.0,67,0.00,,,0.00,WUHU21636XXSP,2013-09-25 16:07:00,
2013-09-25 11:12:00,64.6,53.1,30.00,South,180,0.0,0.0,66,0.00,,,0.00,WUHU21636XXSP,2013-09-25 16:12:00,
2013-09-25 11:17:00,65.1,53.6,30.00,ESE,112,0.0,0.0,66,0.00,,,0.00,WUHU21636XXSP,2013-09-25 16:17:00,
2013-09-25 11:22:00,65.5,53.2,30.00,South,180,0.0,0.0,64,0.00,,,0.00,WUHU21636XXSP,2013-09-25 16:22:00,
2013-09-25 11:27:00,66.0,52.4,30.00,South,180,0.0,0.0,61,0.00,,,0.00,WUHU21636XXSP,2013-09-25 16:27:00,
2013-09-25 11:32:00,66.0,51.9,30.00,SE,135,4.4,4.4,60,0.00,,,0.00,WUHU21636XXSP,2013-09-25 16:32:00,
2013-09-25 11:37:00,66.5,52.8,30.00,SSE,157,0.0,4.4,61,0.00,,,0.00,WUHU21636XXSP,2013-09-25 16:37:00,
2013-09-25 11:42:00,66.8,53.5,30.00,ESE,112,0.8,4.4,62,0.00,,,0.00,WUHU21636XXSP,2013-09-25 16:42:00,
2013-09-25 11:46:00,67.4,54.1,30.00,East,90,0.0,0.8,62,0.00,,,0.00,WUHU21636XXSP,2013-09-25 16:46:00,
2013-09-25 11:52:00,67.4,52.7,30.00,NNE,22,7.0,15.6,59,0.00,,,0.00,WUHU21636XXSP,2013-09-25 16:52:00,
2013-09-25 11:56:00,67.7,53.0,30.00,East,90,8.8,15.6,59,0.00,,,0.00,WUHU21636XXSP,2013-09-25 16:56:00,
2013-09-25 12:01:00,68.4,52.7,29.99,ESE,112,0.0,8.8,57,0.00,,,0.00,WUHU21636XXSP,2013-09-25 17:01:00,
2013-09-25 12:07:00,68.6,52.9,29.99,SE,135,8.0,8.0,57,0.00,,,0.00,WUHU21636XXSP,2013-09-25 17:07:00,
2013-09-25 12:12:00,68.7,52.5,29.99,SSE,157,6.6,8.0,56,0.00,,,0.00,WUHU21636XXSP,2013-09-25 17:12:00,
2013-09-25 12:17:00,69.1,53.4,29.98,SSE,157,0.0,6.6,57,0.00,,,0.00,WUHU21636XXSP,2013-09-25 17:17:00,
2013-09-25 12:22:00,69.6,54.3,29.98,SSE,157,0.0,0.0,58,0.00,,,0.00,WUHU21636XXSP,2013-09-25 17:22:00,
2013-09-25 12:27:00,69.8,54.1,29.98,SE,135,0.0,0.0,57,0.00,,,0.00,WUHU21636XXSP,2013-09-25 17:27:00,
2013-09-25 12:32:00,70.2,54.0,29.97,East,90,0.0,0.0,56,0.00,,,0.00,WUHU21636XXSP,2013-09-25 17:32:00,
2013-09-25 12:37:00,70.6,54.7,29.98,South,180,0.0,0.0,57,0.00,,,0.00,WUHU21636XXSP,2013-09-25 17:37:00,
2013-09-25 12:42:00,70.8,54.9,29.98,South,180,2.2,2.2,57,0.00,,,0.00,WUHU21636XXSP,2013-09-25 17:42:00,
2013-09-25 12:47:00,70.8,54.4,29.98,ESE,112,6.6,6.6,56,0.00,,,0.00,WUHU21636XXSP,2013-09-25 17:47:00,
2013-09-25 12:52:00,71.2,53.8,29.97,East,80,3.6,6.6,54,0.00,,,0.00,WUHU21636XXSP,2013-09-25 17:52:00,
2013-09-25 12:57:00,71.5,54.6,29.97,ESE,112,0.0,6.6,55,0.00,,,0.00,WUHU21636XXSP,2013-09-25 17:57:00,
2013-09-25 13:02:00,71.9,54.0,29.97,SSW,202,5.8,6.6,53,0.00,,,0.00,WUHU21636XXSP,2013-09-25 18:02:00,
2013-09-25 13:07:00,72.4,55.0,29.97,SSE,157,5.2,12.4,54,0.00,,,0.00,WUHU21636XXSP,2013-09-25 18:07:00,
2013-09-25 13:12:00,72.9,55.4,29.97,East,90,2.6,12.4,54,0.00,,,0.00,WUHU21636XXSP,2013-09-25 18:12:00,
2013-09-25 13:17:00,72.9,54.3,29.97,ENE,67,0.0,6.2,52,0.00,,,0.00,WUHU21636XXSP,2013-09-25 18:17:00,
2013-09-25 13:22:00,73.3,53.6,29.97,SE,135,0.0,6.2,50,0.00,,,0.00,WUHU21636XXSP,2013-09-25 18:22:00,
2013-09-25 13:27:00,72.7,54.1,29.97,ESE,112,0.0,0.0,52,0.00,,,0.00,WUHU21636XXSP,2013-09-25 18:27:00,
2013-09-25 13:32:00,73.1,54.5,29.97,SE,135,0.0,0.0,52,0.00,,,0.00,WUHU21636XXSP,2013-09-25 18:32:00,
2013-09-25 13:37:00,73.4,54.8,29.96,SW,225,4.0,4.0,52,0.00,,,0.00,WUHU21636XXSP,2013-09-25 18:37:00,
2013-09-25 13:42:00,73.1,54.5,29.96,SW,225,0.0,4.0,52,0.00,,,0.00,WUHU21636XXSP,2013-09-25 18:42:00,
2013-09-25 13:47:00,73.6,55.0,29.96,ESE,112,0.0,4.0,52,0.00,,,0.00,WUHU21636XXSP,2013-09-25 18:47:00,
2013-09-25 13:52:00,74.0,54.8,29.96,SSW,202,0.0,0.0,51,0.00,,,0.00,WUHU21636XXSP,2013-09-25 18:52:00,
2013-09-25 13:57:00,74.3,53.4,29.95,ENE,67,2.6,2.6,48,0.00,,,0.00,WUHU21636XXSP,2013-09-25 18:57:00,
2013-09-25 14:02:00,74.2,54.5,29.95,NE,45,0.0,2.6,50,0.00,,,0.00,WUHU21636XXSP,2013-09-25 19:02:00,
2013-09-25 14:07:00,74.6,55.3,29.95,ESE,112,1.6,1.6,51,0.00,,,0.00,WUHU21636XXSP,2013-09-25 19:07:00,
2013-09-25 14:12:00,74.8,55.0,29.94,SE,135,0.0,1.6,50,0.00,,,0.00,WUHU21636XXSP,2013-09-25 19:12:00,
2013-09-25 14:17:00,75.0,55.7,29.94,SE,135,0.0,3.4,51,0.00,,,0.00,WUHU21636XXSP,2013-09-25 19:17:00,
2013-09-25 14:22:00,74.3,55.1,29.94,SSW,202,0.0,3.4,51,0.00,,,0.00,WUHU21636XXSP,2013-09-25 19:22:00,
2013-09-25 14:27:00,74.3,55.7,29.94,East,90,0.0,2.6,52,0.00,,,0.00,WUHU21636XXSP,2013-09-25 19:27:00,
2013-09-25 14:32:00,74.6,54.8,29.94,ESE,112,0.0,7.6,50,0.00,,,0.00,WUHU21636XXSP,2013-09-25 19:32:00,
2013-09-25 14:37:00,74.0,54.8,29.94,WSW,247,0.0,7.6,51,0.00,,,0.00,WUHU21636XXSP,2013-09-25 19:37:00,
2013-09-25 14:42:00,74.6,55.9,29.94,ESE,112,0.0,0.0,52,0.00,,,0.00,WUHU21636XXSP,2013-09-25 19:42:00,
2013-09-25 14:47:00,74.6,54.8,29.94,East,90,2.6,6.6,50,0.00,,,0.00,WUHU21636XXSP,2013-09-25 19:47:00,
2013-09-25 14:52:00,74.6,54.8,29.94,WSW,247,0.0,6.6,50,0.00,,,0.00,WUHU21636XXSP,2013-09-25 19:52:00,
2013-09-25 14:57:00,75.0,54.6,29.94,SE,135,6.2,6.2,49,0.00,,,0.00,WUHU21636XXSP,2013-09-25 19:57:00,
2013-09-25 15:02:00,74.8,54.4,29.94,WSW,247,0.0,6.2,49,0.00,,,0.00,WUHU21636XXSP,2013-09-25 20:02:00,
2013-09-25 15:07:00,74.8,55.0,29.93,ESE,112,0.0,6.2,50,0.00,,,0.00,WUHU21636XXSP,2013-09-25 20:07:00,
2013-09-25 15:12:00,75.3,54.9,29.93,SSE,157,0.0,0.0,49,0.00,,,0.00,WUHU21636XXSP,2013-09-25 20:12:00,
2013-09-25 15:17:00,75.5,55.1,29.93,South,180,0.0,0.0,49,0.00,,,0.00,WUHU21636XXSP,2013-09-25 20:17:00,
2013-09-25 15:22:00,75.9,54.9,29.93,NNW,337,0.0,0.0,48,0.00,,,0.00,WUHU21636XXSP,2013-09-25 20:22:00,
2013-09-25 15:27:00,75.7,54.7,29.93,WSW,247,1.6,1.6,48,0.00,,,0.00,WUHU21636XXSP,2013-09-25 20:27:00,
2013-09-25 15:32:00,75.9,56.0,29.93,WNW,292,0.0,3.4,50,0.00,,,0.00,WUHU21636XXSP,2013-09-25 20:32:00,
2013-09-25 15:37:00,76.1,56.2,29.93,SSW,202,0.0,3.4,50,0.00,,,0.00,WUHU21636XXSP,2013-09-25 20:37:00,
2013-09-25 15:42:00,76.2,56.9,29.93,ESE,112,0.0,0.0,51,0.00,,,0.00,WUHU21636XXSP,2013-09-25 20:42:00,
2013-09-25 15:47:00,76.2,56.3,29.93,East,90,0.0,0.0,50,0.00,,,0.00,WUHU21636XXSP,2013-09-25 20:47:00,
2013-09-25 15:52:00,76.4,56.5,29.93,ESE,112,0.0,0.0,50,0.00,,,0.00,WUHU21636XXSP,2013-09-25 20:52:00,
2013-09-25 15:57:00,76.4,55.9,29.92,SE,135,0.0,0.0,49,0.00,,,0.00,WUHU21636XXSP,2013-09-25 20:57:00,
2013-09-25 16:02:00,76.7,56.1,29.92,SSE,157,0.0,0.0,49,0.00,,,0.00,WUHU21636XXSP,2013-09-25 21:02:00,
2013-09-25 16:07:00,76.9,55.7,29.92,NW,315,0.0,0.0,48,0.00,,,0.00,WUHU21636XXSP,2013-09-25 21:07:00,
2013-09-25 16:12:00,76.4,55.9,29.92,NW,315,0.0,0.0,49,0.00,,,0.00,WUHU21636XXSP,2013-09-25 21:12:00,
2013-09-25 16:17:00,76.2,56.3,29.92,ENE,67,0.0,0.0,50,0.00,,,0.00,WUHU21636XXSP,2013-09-25 21:17:00,
2013-09-25 16:22:00,76.2,55.7,29.92,SE,135,0.0,0.0,49,0.00,,,0.00,WUHU21636XXSP,2013-09-25 21:22:00,
2013-09-25 16:27:00,76.1,55.6,29.92,SE,135,4.8,4.8,49,0.00,,,0.00,WUHU21636XXSP,2013-09-25 21:27:00,
2013-09-25 16:32:00,75.9,54.9,29.92,East,90,6.6,6.6,48,0.00,,,0.00,WUHU21636XXSP,2013-09-25 21:32:00,
2013-09-25 16:37:00,75.3,54.3,29.92,East,90,0.0,6.6,48,0.00,,,0.00,WUHU21636XXSP,2013-09-25 21:37:00,
2013-09-25 16:42:00,75.0,55.2,29.92,East,90,0.0,6.6,50,0.00,,,0.00,WUHU21636XXSP,2013-09-25 21:42:00,
2013-09-25 16:47:00,75.2,55.9,29.92,SSE,157,0.0,0.0,51,0.00,,,0.00,WUHU21636XXSP,2013-09-25 21:47:00,
2013-09-25 16:52:00,75.2,57.0,29.92,SE,135,0.0,0.0,53,0.00,,,0.00,WUHU21636XXSP,2013-09-25 21:52:00,
2013-09-25 16:57:00,75.0,56.3,29.92,ESE,112,4.0,4.0,52,0.00,,,0.00,WUHU21636XXSP,2013-09-25 21:57:00,
2013-09-25 17:02:00,75.0,55.2,29.92,West,270,0.0,4.0,50,0.00,,,0.00,WUHU21636XXSP,2013-09-25 22:02:00,
2013-09-25 17:07:00,74.6,55.9,29.92,SW,225,0.0,0.0,52,0.00,,,0.00,WUHU21636XXSP,2013-09-25 22:07:00,
2013-09-25 17:12:00,74.6,56.4,29.92,SW,225,0.0,0.0,53,0.00,,,0.00,WUHU21636XXSP,2013-09-25 22:12:00,
2013-09-25 17:17:00,73.4,55.9,29.92,SW,225,0.0,0.0,54,0.00,,,0.00,WUHU21636XXSP,2013-09-25 22:17:00,
2013-09-25 17:22:00,73.1,56.1,29.92,SW,225,0.0,0.0,55,0.00,,,0.00,WUHU21636XXSP,2013-09-25 22:22:00,
2013-09-25 17:27:00,72.4,56.0,29.93,SW,225,0.0,0.0,56,0.00,,,0.00,WUHU21636XXSP,2013-09-25 22:27:00,
2013-09-25 17:32:00,72.1,56.2,29.93,SW,225,0.0,0.0,57,0.00,,,0.00,WUHU21636XXSP,2013-09-25 22:32:00,
2013-09-25 17:37:00,71.5,55.6,29.93,SW,225,0.0,0.0,57,0.00,,,0.00,WUHU21636XXSP,2013-09-25 22:37:00,
2013-09-25 17:42:00,70.8,55.9,29.93,SW,225,0.0,0.0,59,0.00,,,0.00,WUHU21636XXSP,2013-09-25 22:42:00,
2013-09-25 17:47:00,70.5,56.1,29.93,SW,225,0.0,0.0,60,0.00,,,0.00,WUHU21636XXSP,2013-09-25 22:47:00,
2013-09-25 17:52:00,69.8,55.5,29.93,SW,225,0.0,0.0,60,0.00,,,0.00,WUHU21636XXSP,2013-09-25 22:52:00,
2013-09-25 17:57:00,69.3,55.9,29.93,SW,225,0.0,0.0,62,0.00,,,0.00,WUHU21636XXSP,2013-09-25 22:57:00,
2013-09-25 18:02:00,68.6,55.7,29.93,SW,225,0.0,0.0,63,0.00,,,0.00,WUHU21636XXSP,2013-09-25 23:02:00,
2013-09-25 18:07:00,68.1,55.3,29.93,SW,225,0.0,0.0,63,0.00,,,0.00,WUHU21636XXSP,2013-09-25 23:07:00,
2013-09-25 18:12:00,67.9,55.5,29.93,SW,225,0.0,0.0,64,0.00,,,0.00,WUHU21636XXSP,2013-09-25 23:12:00,
2013-09-25 18:17:00,67.7,55.3,29.92,SW,225,0.0,0.0,64,0.00,,,0.00,WUHU21636XXSP,2013-09-25 23:17:00,
2013-09-25 18:22:00,67.2,55.2,29.92,SW,225,0.0,0.0,65,0.00,,,0.00,WUHU21636XXSP,2013-09-25 23:22:00,
2013-09-25 18:27:00,67.0,55.0,29.92,SW,225,0.0,0.0,65,0.00,,,0.00,WUHU21636XXSP,2013-09-25 23:27:00,
2013-09-25 18:32:00,66.8,55.2,29.93,SW,225,0.0,0.0,66,0.00,,,0.00,WUHU21636XXSP,2013-09-25 23:32:00,
2013-09-25 18:37:00,66.7,55.1,29.93,SW,225,0.0,0.0,66,0.00,,,0.00,WUHU21636XXSP,2013-09-25 23:37:00,
2013-09-25 18:42:00,66.5,54.9,29.93,SW,225,0.0,0.0,66,0.00,,,0.00,WUHU21636XXSP,2013-09-25 23:42:00,
2013-09-25 18:47:00,66.0,54.9,29.93,SW,225,0.0,0.0,67,0.00,,,0.00,WUHU21636XXSP,2013-09-25 23:47:00,
2013-09-25 18:52:00,65.8,55.1,29.93,SW,225,0.0,0.0,68,0.00,,,0.00,WUHU21636XXSP,2013-09-25 23:52:00,
2013-09-25 18:57:00,65.3,54.6,29.93,SW,225,0.0,0.0,68,0.00,,,0.00,WUHU21636XXSP,2013-09-25 23:57:00,
2013-09-25 19:02:00,64.9,54.2,29.93,SW,225,0.0,0.0,68,0.00,,,0.00,WUHU21636XXSP,2013-09-26 00:02:00,
2013-09-25 19:07:00,64.8,54.5,29.94,SW,225,0.0,0.0,69,0.00,,,0.00,WUHU21636XXSP,2013-09-26 00:07:00,
2013-09-25 19:12:00,64.4,54.1,29.93,SW,225,0.0,0.0,69,0.00,,,0.00,WUHU21636XXSP,2013-09-26 00:12:00,
2013-09-25 19:17:00,63.9,53.7,29.93,SW,225,0.0,0.0,69,0.00,,,0.00,WUHU21636XXSP,2013-09-26 00:17:00,
2013-09-25 19:22:00,63.6,53.8,29.93,SW,225,0.0,0.0,70,0.00,,,0.00,WUHU21636XXSP,2013-09-26 00:22:00,
2013-09-25 19:27:00,63.2,53.8,29.93,SW,225,0.0,0.0,71,0.00,,,0.00,WUHU21636XXSP,2013-09-26 00:27:00,
2013-09-25 19:32:00,63.0,53.6,29.93,SW,225,0.0,0.0,71,0.00,,,0.00,WUHU21636XXSP,2013-09-26 00:32:00,
2013-09-25 19:37:00,62.7,53.3,29.93,SW,225,0.0,0.0,71,0.00,,,0.00,WUHU21636XXSP,2013-09-26 00:37:00,
2013-09-25 19:42:00,62.5,53.1,29.94,SW,225,0.0,0.0,71,0.00,,,0.00,WUHU21636XXSP,2013-09-26 00:42:00,
2013-09-25 19:47:00,62.3,53.3,29.93,SW,225,0.0,0.0,72,0.00,,,0.00,WUHU21636XXSP,2013-09-26 00:47:00,
2013-09-25 19:52:00,61.7,52.8,29.94,SW,225,0.0,0.0,72,0.00,,,0.00,WUHU21636XXSP,2013-09-26 00:52:00,
2013-09-25 19:57:00,61.5,52.5,29.93,SW,225,0.0,0.0,72,0.00,,,0.00,WUHU21636XXSP,2013-09-26 00:57:00,
2013-09-25 20:02:00,61.3,52.7,29.93,SW,225,0.0,0.0,73,0.00,,,0.00,WUHU21636XXSP,2013-09-26 01:02:00,
2013-09-25 20:07:00,61.0,52.4,29.93,SW,225,0.0,0.0,73,0.00,,,0.00,WUHU21636XXSP,2013-09-26 01:07:00,
2013-09-25 20:12:00,60.8,52.6,29.94,SW,225,0.0,0.0,74,0.00,,,0.00,WUHU21636XXSP,2013-09-26 01:12:00,
2013-09-25 20:17:00,60.4,52.2,29.93,SW,225,0.0,0.0,74,0.00,,,0.00,WUHU21636XXSP,2013-09-26 01:17:00,
2013-09-25 20:22:00,60.2,52.3,29.94,SW,225,0.0,0.0,75,0.00,,,0.00,WUHU21636XXSP,2013-09-26 01:22:00,
2013-09-25 20:27:00,60.1,52.2,29.93,SW,225,0.0,0.0,75,0.00,,,0.00,WUHU21636XXSP,2013-09-26 01:27:00,
2013-09-25 20:32:00,59.4,51.6,29.93,SW,225,0.0,0.0,75,0.00,,,0.00,WUHU21636XXSP,2013-09-26 01:32:00,
2013-09-25 20:37:00,59.4,51.6,29.93,SW,225,0.0,0.0,75,0.00,,,0.00,WUHU21636XXSP,2013-09-26 01:37:00,
2013-09-25 20:42:00,59.1,51.6,29.93,SW,225,0.0,0.0,76,0.00,,,0.00,WUHU21636XXSP,2013-09-26 01:42:00,
2013-09-25 20:47:00,58.9,51.4,29.93,SW,225,0.0,0.0,76,0.00,,,0.00,WUHU21636XXSP,2013-09-26 01:47:00,
2013-09-25 20:52:00,58.7,51.2,29.93,SW,225,0.0,0.0,76,0.00,,,0.00,WUHU21636XXSP,2013-09-26 01:52:00,
2013-09-25 20:57:00,58.7,51.6,29.93,SW,225,0.0,0.0,77,0.00,,,0.00,WUHU21636XXSP,2013-09-26 01:57:00,
2013-09-25 21:02:00,58.5,51.4,29.93,SW,225,0.0,0.0,77,0.00,,,0.00,WUHU21636XXSP,2013-09-26 02:02:00,
2013-09-25 21:07:00,58.3,51.5,29.94,SW,225,0.0,0.0,78,0.00,,,0.00,WUHU21636XXSP,2013-09-26 02:07:00,
2013-09-25 21:12:00,58.2,51.4,29.94,SW,225,0.0,0.0,78,0.00,,,0.00,WUHU21636XXSP,2013-09-26 02:12:00,
2013-09-25 21:18:00,58.0,51.2,29.94,SW,225,0.0,0.0,78,0.00,,,0.00,WUHU21636XXSP,2013-09-26 02:18:00,
2013-09-25 21:23:00,57.8,51.0,29.94,SW,225,0.0,0.0,78,0.00,,,0.00,WUHU21636XXSP,2013-09-26 02:23:00,
2013-09-25 21:28:00,57.8,51.0,29.94,SW,225,0.0,0.0,78,0.00,,,0.00,WUHU21636XXSP,2013-09-26 02:28:00,
2013-09-25 21:33:00,57.5,51.1,29.94,SW,225,0.0,0.0,79,0.00,,,0.00,WUHU21636XXSP,2013-09-26 02:33:00,
2013-09-25 21:38:00,57.5,51.1,29.94,SW,225,0.0,0.0,79,0.00,,,0.00,WUHU21636XXSP,2013-09-26 02:38:00,
2013-09-25 21:43:00,57.3,50.9,29.94,SW,225,0.0,0.0,79,0.00,,,0.00,WUHU21636XXSP,2013-09-26 02:43:00,
2013-09-25 21:48:00,57.3,50.9,29.94,SW,225,0.0,0.0,79,0.00,,,0.00,WUHU21636XXSP,2013-09-26 02:48:00,
2013-09-25 21:53:00,57.2,51.2,29.94,SW,225,0.0,0.0,80,0.00,,,0.00,WUHU21636XXSP,2013-09-26 02:53:00,
2013-09-25 21:58:00,57.0,51.0,29.94,SW,225,0.0,0.0,80,0.00,,,0.00,WUHU21636XXSP,2013-09-26 02:58:00,
2013-09-25 22:03:00,56.8,50.7,29.94,SW,225,0.0,0.0,80,0.00,,,0.00,WUHU21636XXSP,2013-09-26 03:03:00,
2013-09-25 22:08:00,56.6,50.5,29.94,SW,225,0.0,0.0,80,0.00,,,0.00,WUHU21636XXSP,2013-09-26 03:08:00,
2013-09-25 22:13:00,56.6,50.5,29.94,SW,225,0.0,0.0,80,0.00,,,0.00,WUHU21636XXSP,2013-09-26 03:13:00,
2013-09-25 22:18:00,56.4,50.3,29.94,SW,225,0.0,0.0,80,0.00,,,0.00,WUHU21636XXSP,2013-09-26 03:18:00,
2013-09-25 22:23:00,56.4,50.7,29.94,SW,225,0.0,0.0,81,0.00,,,0.00,WUHU21636XXSP,2013-09-26 03:23:00,
2013-09-25 22:28:00,56.4,50.7,29.94,SW,225,0.0,0.0,81,0.00,,,0.00,WUHU21636XXSP,2013-09-26 03:28:00,
2013-09-25 22:33:00,56.1,50.4,29.94,SW,225,0.0,0.0,81,0.00,,,0.00,WUHU21636XXSP,2013-09-26 03:33:00,
2013-09-25 22:38:00,56.1,50.4,29.94,SW,225,0.0,0.0,81,0.00,,,0.00,WUHU21636XXSP,2013-09-26 03:38:00,
2013-09-25 22:43:00,55.9,50.2,29.94,SW,225,0.0,0.0,81,0.00,,,0.00,WUHU21636XXSP,2013-09-26 03:43:00,
2013-09-25 22:48:00,55.7,49.9,29.95,SW,225,0.0,0.0,81,0.00,,,0.00,WUHU21636XXSP,2013-09-26 03:48:00,
2013-09-25 22:53:00,55.7,49.9,29.95,SW,225,0.0,0.0,81,0.00,,,0.00,WUHU21636XXSP,2013-09-26 03:53:00,
2013-09-25 22:58:00,55.4,49.7,29.95,SW,225,0.0,0.0,81,0.00,,,0.00,WUHU21636XXSP,2013-09-26 03:58:00,
2013-09-25 23:01:00,55.4,49.7,29.94,SW,225,0.0,0.0,81,0.00,,,0.00,WUHU21636XXSP,2013-09-26 04:01:00,
2013-09-25 23:06:00,55.4,49.7,29.94,SW,225,0.0,0.0,81,0.00,,,0.00,WUHU21636XXSP,2013-09-26 04:06:00,
2013-09-25 23:11:00,55.4,49.7,29.94,SW,225,0.0,0.0,81,0.00,,,0.00,WUHU21636XXSP,2013-09-26 04:11:00,
2013-09-25 23:16:00,55.3,50.0,29.94,SW,225,0.0,0.0,82,0.00,,,0.00,WUHU21636XXSP,2013-09-26 04:16:00,
2013-09-25 23:21:00,55.1,49.8,29.94,SW,225,0.0,0.0,82,0.00,,,0.00,WUHU21636XXSP,2013-09-26 04:21:00,
2013-09-25 23:26:00,55.1,49.8,29.94,SW,225,0.0,0.0,82,0.00,,,0.00,WUHU21636XXSP,2013-09-26 04:26:00,
2013-09-25 23:31:00,55.1,49.8,29.94,South,180,0.0,0.0,82,0.00,,,0.00,WUHU21636XXSP,2013-09-26 04:31:00,
2013-09-25 23:36:00,55.1,49.8,29.94,South,180,0.0,0.0,82,0.00,,,0.00,WUHU21636XXSP,2013-09-26 04:36:00,
2013-09-25 23:41:00,54.9,49.5,29.95,South,180,0.0,0.0,82,0.00,,,0.00,WUHU21636XXSP,2013-09-26 04:41:00,
2013-09-25 23:46:00,54.7,49.3,29.95,South,180,0.0,0.0,82,0.00,,,0.00,WUHU21636XXSP,2013-09-26 04:46:00,
2013-09-25 23:51:00,54.7,49.3,29.96,South,180,0.0,0.0,82,0.00,,,0.00,WUHU21636XXSP,2013-09-26 04:51:00,
2013-09-25 23:56:00,54.7,49.3,29.96,South,180,0.0,0.0,82,0.00,,,0.00,WUHU21636XXSP,2013-09-26 04:56:00,